sensor_id;sensor_type;location;lat;lon;timestamp;P1;durP1;ratioP1;P2;durP2;ratioP2
26337;SDS011;14050;50.950;4.460;2023-04-01T00:04:27;13.02;;;2.42;;
26337;SDS011;14050;50.950;4.460;2023-04-01T00:09:28;9.98;;;2.47;;
26337;SDS011;14050;50.950;4.460;2023-04-01T00:14:28;9.45;;;1.92;;
26337;SDS011;14050;50.950;4.460;2023-04-01T00:19:29;9.25;;;1.95;;
26337;SDS011;14050;50.950;4.460;2023-04-01T00:24:30;12.02;;;2.20;;
26337;SDS011;14050;50.950;4.460;2023-04-01T00:29:30;9.52;;;2.10;;
26337;SDS011;14050;50.950;4.460;2023-04-01T00:34:33;14.38;;;1.98;;
26337;SDS011;14050;50.950;4.460;2023-04-01T00:39:34;15.23;;;2.60;;
26337;SDS011;14050;50.950;4.460;2023-04-01T00:44:36;11.38;;;2.22;;
26337;SDS011;14050;50.950;4.460;2023-04-01T00:49:38;12.95;;;3.05;;
26337;SDS011;14050;50.950;4.460;2023-04-01T00:54:39;11.73;;;2.72;;
26337;SDS011;14050;50.950;4.460;2023-04-01T00:59:43;12.43;;;2.38;;
26337;SDS011;14050;50.950;4.460;2023-04-01T01:04:44;10.40;;;2.10;;
26337;SDS011;14050;50.950;4.460;2023-04-01T01:09:47;12.77;;;3.33;;
26337;SDS011;14050;50.950;4.460;2023-04-01T01:14:55;5.63;;;2.35;;
26337;SDS011;14050;50.950;4.460;2023-04-01T01:40:16;8.10;;;2.85;;
26337;SDS011;14050;50.950;4.460;2023-04-01T01:45:18;4.95;;;2.22;;
26337;SDS011;14050;50.950;4.460;2023-04-01T01:50:20;8.18;;;3.38;;
26337;SDS011;14050;50.950;4.460;2023-04-01T01:55:54;7.22;;;3.28;;
26337;SDS011;14050;50.950;4.460;2023-04-01T02:00:55;8.57;;;2.80;;
26337;SDS011;14050;50.950;4.460;2023-04-01T02:05:57;6.88;;;3.17;;
26337;SDS011;14050;50.950;4.460;2023-04-01T02:11:00;11.43;;;4.18;;
26337;SDS011;14050;50.950;4.460;2023-04-01T02:16:02;10.73;;;3.90;;
26337;SDS011;14050;50.950;4.460;2023-04-01T02:21:04;6.43;;;2.90;;
26337;SDS011;14050;50.950;4.460;2023-04-01T02:26:06;10.90;;;3.30;;
26337;SDS011;14050;50.950;4.460;2023-04-01T02:31:08;10.65;;;3.45;;
26337;SDS011;14050;50.950;4.460;2023-04-01T02:36:11;8.50;;;3.13;;
26337;SDS011;14050;50.950;4.460;2023-04-01T02:41:12;8.95;;;3.05;;
26337;SDS011;14050;50.950;4.460;2023-04-01T02:46:12;11.35;;;3.25;;
26337;SDS011;14050;50.950;4.460;2023-04-01T02:51:13;12.00;;;3.30;;
26337;SDS011;14050;50.950;4.460;2023-04-01T02:56:13;10.05;;;3.13;;
26337;SDS011;14050;50.950;4.460;2023-04-01T03:01:13;9.88;;;3.05;;
26337;SDS011;14050;50.950;4.460;2023-04-01T03:06:14;12.50;;;2.70;;
26337;SDS011;14050;50.950;4.460;2023-04-01T03:11:18;13.00;;;3.40;;
26337;SDS011;14050;50.950;4.460;2023-04-01T03:16:18;13.57;;;3.72;;
26337;SDS011;14050;50.950;4.460;2023-04-01T03:21:20;11.23;;;3.95;;
26337;SDS011;14050;50.950;4.460;2023-04-01T03:26:22;12.43;;;4.78;;
26337;SDS011;14050;50.950;4.460;2023-04-01T03:31:22;12.85;;;4.32;;
26337;SDS011;14050;50.950;4.460;2023-04-01T03:36:23;14.60;;;4.70;;
26337;SDS011;14050;50.950;4.460;2023-04-01T03:41:23;15.88;;;6.35;;
26337;SDS011;14050;50.950;4.460;2023-04-01T03:46:24;12.90;;;5.87;;
26337;SDS011;14050;50.950;4.460;2023-04-01T03:51:25;15.45;;;5.57;;
26337;SDS011;14050;50.950;4.460;2023-04-01T03:56:25;20.45;;;6.53;;
26337;SDS011;14050;50.950;4.460;2023-04-01T04:01:26;24.50;;;7.55;;
26337;SDS011;14050;50.950;4.460;2023-04-01T04:06:26;20.02;;;7.85;;
26337;SDS011;14050;50.950;4.460;2023-04-01T04:11:28;21.60;;;7.47;;
26337;SDS011;14050;50.950;4.460;2023-04-01T04:16:30;17.55;;;8.10;;
26337;SDS011;14050;50.950;4.460;2023-04-01T04:21:30;18.40;;;8.57;;
26337;SDS011;14050;50.950;4.460;2023-04-01T04:26:31;19.77;;;7.72;;
26337;SDS011;14050;50.950;4.460;2023-04-01T04:31:31;19.00;;;7.35;;
26337;SDS011;14050;50.950;4.460;2023-04-01T04:36:31;10.38;;;5.65;;
26337;SDS011;14050;50.950;4.460;2023-04-01T04:41:32;8.30;;;4.13;;
26337;SDS011;14050;50.950;4.460;2023-04-01T04:46:32;11.30;;;4.80;;
26337;SDS011;14050;50.950;4.460;2023-04-01T04:51:33;7.65;;;4.43;;
26337;SDS011;14050;50.950;4.460;2023-04-01T04:56:35;8.65;;;4.50;;
26337;SDS011;14050;50.950;4.460;2023-04-01T05:01:36;7.60;;;4.05;;
26337;SDS011;14050;50.950;4.460;2023-04-01T05:06:36;7.82;;;3.67;;
26337;SDS011;14050;50.950;4.460;2023-04-01T05:11:36;8.80;;;3.20;;
26337;SDS011;14050;50.950;4.460;2023-04-01T05:16:36;3.63;;;2.75;;
26337;SDS011;14050;50.950;4.460;2023-04-01T05:21:37;5.15;;;2.58;;
26337;SDS011;14050;50.950;4.460;2023-04-01T05:26:37;7.32;;;3.17;;
26337;SDS011;14050;50.950;4.460;2023-04-01T05:31:37;3.15;;;2.28;;
26337;SDS011;14050;50.950;4.460;2023-04-01T05:36:37;7.10;;;2.45;;
26337;SDS011;14050;50.950;4.460;2023-04-01T05:41:38;3.25;;;2.15;;
26337;SDS011;14050;50.950;4.460;2023-04-01T05:46:38;3.20;;;2.30;;
26337;SDS011;14050;50.950;4.460;2023-04-01T05:51:38;3.75;;;2.65;;
26337;SDS011;14050;50.950;4.460;2023-04-01T05:56:39;5.30;;;3.60;;
26337;SDS011;14050;50.950;4.460;2023-04-01T06:01:39;5.57;;;3.95;;
26337;SDS011;14050;50.950;4.460;2023-04-01T06:06:40;6.75;;;4.03;;
26337;SDS011;14050;50.950;4.460;2023-04-01T06:21:45;8.63;;;5.20;;
26337;SDS011;14050;50.950;4.460;2023-04-01T06:32:06;7.20;;;5.18;;
26337;SDS011;14050;50.950;4.460;2023-04-01T06:57:54;4.80;;;2.28;;
26337;SDS011;14050;50.950;4.460;2023-04-01T07:03:14;6.20;;;2.35;;
26337;SDS011;14050;50.950;4.460;2023-04-01T07:08:25;3.05;;;1.85;;
26337;SDS011;14050;50.950;4.460;2023-04-01T07:18:41;3.28;;;1.58;;
26337;SDS011;14050;50.950;4.460;2023-04-01T07:23:42;2.77;;;1.30;;
26337;SDS011;14050;50.950;4.460;2023-04-01T07:28:45;4.10;;;1.60;;
26337;SDS011;14050;50.950;4.460;2023-04-01T07:33:49;4.25;;;1.20;;
26337;SDS011;14050;50.950;4.460;2023-04-01T07:38:56;2.50;;;1.20;;
26337;SDS011;14050;50.950;4.460;2023-04-01T07:44:07;3.67;;;1.35;;
26337;SDS011;14050;50.950;4.460;2023-04-01T07:49:12;2.15;;;1.00;;
26337;SDS011;14050;50.950;4.460;2023-04-01T08:04:51;4.38;;;0.98;;
26337;SDS011;14050;50.950;4.460;2023-04-01T08:25:40;1.00;;;0.90;;
26337;SDS011;14050;50.950;4.460;2023-04-01T08:35:48;2.75;;;1.10;;
26337;SDS011;14050;50.950;4.460;2023-04-01T09:01:14;4.20;;;1.02;;
26337;SDS011;14050;50.950;4.460;2023-04-01T09:06:59;1.60;;;0.80;;
26337;SDS011;14050;50.950;4.460;2023-04-01T09:17:00;1.33;;;0.90;;
26337;SDS011;14050;50.950;4.460;2023-04-01T09:27:26;2.42;;;1.10;;
26337;SDS011;14050;50.950;4.460;2023-04-01T09:48:07;6.68;;;2.10;;
26337;SDS011;14050;50.950;4.460;2023-04-01T10:08:36;2.70;;;2.03;;
26337;SDS011;14050;50.950;4.460;2023-04-01T10:14:02;4.57;;;2.80;;
26337;SDS011;14050;50.950;4.460;2023-04-01T10:39:54;3.45;;;1.45;;
26337;SDS011;14050;50.950;4.460;2023-04-01T11:31:00;1.20;;;0.85;;
26337;SDS011;14050;50.950;4.460;2023-04-01T11:41:15;3.03;;;0.95;;
26337;SDS011;14050;50.950;4.460;2023-04-01T11:51:51;3.55;;;1.20;;
26337;SDS011;14050;50.950;4.460;2023-04-01T12:07:21;1.58;;;1.13;;
26337;SDS011;14050;50.950;4.460;2023-04-01T12:49:00;5.10;;;0.90;;
26337;SDS011;14050;50.950;4.460;2023-04-01T13:04:50;2.17;;;1.30;;
26337;SDS011;14050;50.950;4.460;2023-04-01T13:15:12;1.73;;;1.45;;
26337;SDS011;14050;50.950;4.460;2023-04-01T13:20:28;1.50;;;0.90;;
26337;SDS011;14050;50.950;4.460;2023-04-01T13:25:52;1.40;;;0.82;;
26337;SDS011;14050;50.950;4.460;2023-04-01T13:56:34;2.70;;;1.17;;
26337;SDS011;14050;50.950;4.460;2023-04-01T14:12:06;3.65;;;2.75;;
26337;SDS011;14050;50.950;4.460;2023-04-01T14:27:41;6.70;;;4.30;;
26337;SDS011;14050;50.950;4.460;2023-04-01T14:48:23;3.72;;;2.45;;
26337;SDS011;14050;50.950;4.460;2023-04-01T14:53:34;1.85;;;1.40;;
26337;SDS011;14050;50.950;4.460;2023-04-01T14:58:41;3.05;;;1.38;;
26337;SDS011;14050;50.950;4.460;2023-04-01T15:09:23;4.38;;;1.33;;
26337;SDS011;14050;50.950;4.460;2023-04-01T15:14:15;2.28;;;1.60;;
26337;SDS011;14050;50.950;4.460;2023-04-01T16:21:02;3.05;;;1.60;;
26337;SDS011;14050;50.950;4.460;2023-04-01T16:41:24;5.65;;;3.78;;
26337;SDS011;14050;50.950;4.460;2023-04-01T16:46:43;5.82;;;4.88;;
26337;SDS011;14050;50.950;4.460;2023-04-01T16:51:48;8.40;;;6.35;;
26337;SDS011;14050;50.950;4.460;2023-04-01T16:56:56;9.40;;;5.95;;
26337;SDS011;14050;50.950;4.460;2023-04-01T17:02:02;10.80;;;6.57;;
26337;SDS011;14050;50.950;4.460;2023-04-01T17:17:16;6.63;;;3.10;;
26337;SDS011;14050;50.950;4.460;2023-04-01T17:48:24;4.57;;;3.67;;
26337;SDS011;14050;50.950;4.460;2023-04-01T17:53:33;4.03;;;3.63;;
26337;SDS011;14050;50.950;4.460;2023-04-01T18:24:30;15.35;;;9.52;;
26337;SDS011;14050;50.950;4.460;2023-04-01T18:29:47;5.57;;;4.47;;
26337;SDS011;14050;50.950;4.460;2023-04-01T18:39:53;12.65;;;7.82;;
26337;SDS011;14050;50.950;4.460;2023-04-01T18:44:57;11.30;;;5.82;;
26337;SDS011;14050;50.950;4.460;2023-04-01T19:00:04;11.43;;;8.15;;
26337;SDS011;14050;50.950;4.460;2023-04-01T19:05:14;13.80;;;7.68;;
26337;SDS011;14050;50.950;4.460;2023-04-01T19:10:21;12.85;;;8.35;;
26337;SDS011;14050;50.950;4.460;2023-04-01T19:25:31;17.83;;;9.70;;
26337;SDS011;14050;50.950;4.460;2023-04-01T19:35:42;28.80;;;12.53;;
26337;SDS011;14050;50.950;4.460;2023-04-01T19:56:18;21.17;;;11.15;;
26337;SDS011;14050;50.950;4.460;2023-04-01T20:06:33;18.25;;;9.63;;
26337;SDS011;14050;50.950;4.460;2023-04-01T20:21:58;26.80;;;13.40;;
26337;SDS011;14050;50.950;4.460;2023-04-01T20:27:00;36.28;;;16.80;;
26337;SDS011;14050;50.950;4.460;2023-04-01T20:32:06;31.50;;;17.85;;
26337;SDS011;14050;50.950;4.460;2023-04-01T20:52:17;31.38;;;18.55;;
26337;SDS011;14050;50.950;4.460;2023-04-01T21:07:41;34.92;;;18.98;;
26337;SDS011;14050;50.950;4.460;2023-04-01T21:12:46;32.25;;;20.42;;
26337;SDS011;14050;50.950;4.460;2023-04-01T21:39:32;42.08;;;19.92;;
26337;SDS011;14050;50.950;4.460;2023-04-01T21:54:07;21.30;;;15.25;;
26337;SDS011;14050;50.950;4.460;2023-04-01T22:04:48;13.27;;;10.50;;
26337;SDS011;14050;50.950;4.460;2023-04-01T22:09:55;11.15;;;9.85;;
26337;SDS011;14050;50.950;4.460;2023-04-01T22:25:24;15.32;;;13.73;;
26337;SDS011;14050;50.950;4.460;2023-04-01T22:30:42;19.80;;;17.60;;
26337;SDS011;14050;50.950;4.460;2023-04-01T22:36:05;19.02;;;16.30;;
26337;SDS011;14050;50.950;4.460;2023-04-01T22:51:17;19.65;;;17.55;;
26337;SDS011;14050;50.950;4.460;2023-04-01T22:56:20;20.08;;;17.88;;
26337;SDS011;14050;50.950;4.460;2023-04-01T23:01:24;21.50;;;18.73;;
26337;SDS011;14050;50.950;4.460;2023-04-01T23:06:30;23.13;;;18.17;;
26337;SDS011;14050;50.950;4.460;2023-04-01T23:11:43;19.48;;;17.40;;
26337;SDS011;14050;50.950;4.460;2023-04-01T23:16:45;21.45;;;17.30;;
26337;SDS011;14050;50.950;4.460;2023-04-01T23:21:53;22.00;;;16.90;;
26337;SDS011;14050;50.950;4.460;2023-04-01T23:27:01;19.30;;;17.15;;
26337;SDS011;14050;50.950;4.460;2023-04-01T23:32:03;20.13;;;16.98;;
26337;SDS011;14050;50.950;4.460;2023-04-01T23:37:13;19.98;;;17.98;;
26337;SDS011;14050;50.950;4.460;2023-04-01T23:42:21;20.10;;;17.92;;
26337;SDS011;14050;50.950;4.460;2023-04-01T23:47:44;24.45;;;19.50;;
26337;SDS011;14050;50.950;4.460;2023-04-01T23:52:43;25.05;;;18.00;;
